createdAt,value
2022-11-09T00:00:37.454Z,60.09
2022-11-09T00:02:43.865Z,60.00
2022-11-09T00:04:46.290Z,60.38
2022-11-09T00:06:52.972Z,60.10
2022-11-09T00:08:55.683Z,60.17
2022-11-09T00:11:05.640Z,60.40
2022-11-09T00:13:07.972Z,60.26
2022-11-09T00:15:10.679Z,60.47
2022-11-09T00:17:12.850Z,60.51
2022-11-09T00:19:15.100Z,60.48
2022-11-09T00:21:20.958Z,60.37
2022-11-09T00:23:23.632Z,60.41
2022-11-09T00:25:28.188Z,60.87
2022-11-09T00:27:30.296Z,60.59
2022-11-09T00:29:32.425Z,60.72
2022-11-09T00:31:35.803Z,60.85
2022-11-09T00:33:38.780Z,60.82
2022-11-09T00:35:41.039Z,60.28
2022-11-09T00:37:43.267Z,60.35
2022-11-09T00:39:51.191Z,60.56
2022-11-09T00:41:55.335Z,60.25
2022-11-09T00:43:57.858Z,59.96
2022-11-09T00:46:00.243Z,59.68
2022-11-09T00:48:02.849Z,59.77
2022-11-09T00:50:05.886Z,59.34
2022-11-09T00:52:08.806Z,59.52
2022-11-09T00:54:13.505Z,59.33
2022-11-09T00:56:15.879Z,59.39
2022-11-09T00:58:18.462Z,59.15
2022-11-09T01:00:23.756Z,59.17
2022-11-09T01:02:26.091Z,59.03
2022-11-09T01:04:28.646Z,58.98
2022-11-09T01:06:32.058Z,58.69
2022-11-09T01:08:36.606Z,58.75
2022-11-09T01:10:43.914Z,58.93
2022-11-09T01:12:46.298Z,58.95
2022-11-09T01:14:50.071Z,58.90
2022-11-09T01:16:52.458Z,58.78
2022-11-09T01:18:58.090Z,58.60
2022-11-09T01:21:02.030Z,58.68
2022-11-09T01:23:06.844Z,58.56
2022-11-09T01:25:09.921Z,58.75
2022-11-09T01:27:14.490Z,58.47
2022-11-09T01:29:16.870Z,58.63
2022-11-09T01:31:21.247Z,58.39
2022-11-09T01:33:23.470Z,58.78
2022-11-09T01:35:25.673Z,58.63
2022-11-09T01:37:28.283Z,58.44
2022-11-09T01:39:30.961Z,58.63
2022-11-09T01:41:33.097Z,58.68
2022-11-09T01:43:38.508Z,58.80
2022-11-09T01:45:45.942Z,58.98
2022-11-09T01:48:13.857Z,59.57
2022-11-09T01:50:24.688Z,59.41
2022-11-09T01:52:37.716Z,59.49
2022-11-09T01:54:48.538Z,59.41
2022-11-09T01:56:55.779Z,59.29
2022-11-09T01:59:03.415Z,59.38
2022-11-09T02:01:13.889Z,59.35
2022-11-09T02:03:23.132Z,59.24
2022-11-09T02:05:31.063Z,59.16
2022-11-09T02:07:34.643Z,59.76
2022-11-09T02:10:21.219Z,59.53
2022-11-09T02:12:28.541Z,60.02
2022-11-09T02:14:33.144Z,60.04
2022-11-09T02:16:35.948Z,60.05
2022-11-09T02:18:43.017Z,60.06
2022-11-09T02:21:04.583Z,60.23
2022-11-09T02:23:06.843Z,60.14
2022-11-09T02:25:12.950Z,60.29
2022-11-09T02:27:15.132Z,60.32
2022-11-09T02:29:41.886Z,60.73
2022-11-09T02:31:49.356Z,60.79
2022-11-09T02:33:51.758Z,61.26
2022-11-09T02:35:53.914Z,61.44
2022-11-09T02:37:57.088Z,61.29
2022-11-09T02:40:02.727Z,61.28
2022-11-09T02:42:18.335Z,61.55
2022-11-09T02:44:25.722Z,61.73
2022-11-09T02:46:36.109Z,61.51
2022-11-09T02:48:39.090Z,61.68
2022-11-09T02:50:42.316Z,61.61
2022-11-09T02:52:44.541Z,61.29
2022-11-09T02:54:47.040Z,61.34
2022-11-09T02:56:49.725Z,61.44
2022-11-09T02:58:52.286Z,61.27
2022-11-09T03:00:54.632Z,61.53
2022-11-09T03:02:59.537Z,61.69
2022-11-09T03:05:01.987Z,61.72
2022-11-09T03:07:05.390Z,61.49
2022-11-09T03:09:10.284Z,61.88
2022-11-09T03:11:12.601Z,62.09
2022-11-09T03:13:15.087Z,61.91
2022-11-09T03:15:18.169Z,61.88
2022-11-09T03:17:21.578Z,61.70
2022-11-09T03:19:23.654Z,61.93
2022-11-09T03:21:29.561Z,61.84
2022-11-09T03:23:32.667Z,61.83
2022-11-09T03:25:36.882Z,61.79
2022-11-09T03:27:40.694Z,61.87
2022-11-09T03:29:43.790Z,61.97
2022-11-09T03:31:46.019Z,61.65
2022-11-09T03:33:48.264Z,61.85
2022-11-09T03:35:51.458Z,62.36
2022-11-09T03:37:54.746Z,62.16
2022-11-09T03:39:57.519Z,62.08
2022-11-09T03:42:01.006Z,61.91
2022-11-09T03:44:03.344Z,61.81
2022-11-09T03:46:05.615Z,61.85
2022-11-09T03:48:07.719Z,61.96
2022-11-09T03:50:11.049Z,62.16
2022-11-09T03:52:13.269Z,62.46
2022-11-09T03:54:16.532Z,62.49
2022-11-09T03:56:19.221Z,62.06
2022-11-09T03:58:21.682Z,61.69
2022-11-09T04:00:27.387Z,61.78
2022-11-09T04:02:30.774Z,61.30
2022-11-09T04:04:32.873Z,61.63
2022-11-09T04:06:35.173Z,61.19
2022-11-09T04:08:37.368Z,61.09
2022-11-09T04:10:39.837Z,60.79
2022-11-09T04:12:42.154Z,60.88
2022-11-09T04:14:44.434Z,60.57
2022-11-09T04:16:46.693Z,60.46
2022-11-09T04:18:49.096Z,60.46
2022-11-09T04:20:51.366Z,60.27
2022-11-09T04:22:58.853Z,60.08
2022-11-09T04:25:01.208Z,60.16
2022-11-09T04:27:03.793Z,60.29
2022-11-09T04:29:06.042Z,59.90
2022-11-09T04:31:08.139Z,60.18
2022-11-09T04:33:10.426Z,59.99
2022-11-09T04:35:13.213Z,59.94
2022-11-09T04:37:15.464Z,59.91
2022-11-09T04:39:17.585Z,60.04
2022-11-09T04:41:20.009Z,59.69
2022-11-09T04:43:22.450Z,59.90
2022-11-09T04:45:24.850Z,59.86
2022-11-09T04:47:27.993Z,59.57
2022-11-09T04:49:30.220Z,59.32
2022-11-09T04:51:32.346Z,59.56
2022-11-09T04:53:35.318Z,60.39
2022-11-09T04:55:37.931Z,60.19
2022-11-09T04:57:40.356Z,60.04
2022-11-09T04:59:42.680Z,59.84
2022-11-09T05:01:44.756Z,59.71
2022-11-09T05:03:46.972Z,59.58
2022-11-09T05:05:49.450Z,59.54
2022-11-09T05:07:51.693Z,59.87
2022-11-09T05:09:53.715Z,59.66
2022-11-09T05:11:55.935Z,60.42
2022-11-09T05:13:58.237Z,60.69
2022-11-09T05:16:02.002Z,60.54
2022-11-09T05:18:05.447Z,60.84
2022-11-09T05:20:08.260Z,61.03
2022-11-09T05:22:36.608Z,61.09
2022-11-09T05:24:41.346Z,61.45
2022-11-09T05:26:43.521Z,61.87
2022-11-09T05:28:45.751Z,61.79
2022-11-09T05:30:47.987Z,61.80
2022-11-09T05:32:50.382Z,61.80
2022-11-09T05:34:52.719Z,61.99
2022-11-09T05:36:57.153Z,62.11
2022-11-09T05:39:03.332Z,61.93
2022-11-09T05:41:05.557Z,62.14
2022-11-09T05:43:07.798Z,62.09
2022-11-09T05:45:40.760Z,62.28
2022-11-09T05:47:39.406Z,61.90
2022-11-09T05:49:41.779Z,62.14
2022-11-09T05:51:44.426Z,61.66
2022-11-09T05:53:47.286Z,62.12
2022-11-09T05:55:49.864Z,62.23
2022-11-09T05:57:52.235Z,62.21
2022-11-09T05:59:54.271Z,62.15
2022-11-09T06:01:56.435Z,62.60
2022-11-09T06:03:58.506Z,62.97
2022-11-09T06:06:07.834Z,62.77
2022-11-09T06:08:14.462Z,62.96
2022-11-09T06:10:18.060Z,62.77
2022-11-09T06:12:20.514Z,62.71
2022-11-09T06:14:22.786Z,63.24
2022-11-09T06:16:24.882Z,63.10
2022-11-09T06:18:29.329Z,63.51
2022-11-09T06:20:33.345Z,63.81
2022-11-09T06:22:35.386Z,63.88
2022-11-09T06:24:37.236Z,63.88
2022-11-09T06:26:39.209Z,63.36
2022-11-09T06:28:42.013Z,63.36
2022-11-09T06:30:44.132Z,63.39
2022-11-09T06:32:47.596Z,63.12
2022-11-09T06:34:50.152Z,63.42
2022-11-09T06:36:52.341Z,63.25
2022-11-09T06:38:54.575Z,63.37
2022-11-09T06:40:58.889Z,63.74
2022-11-09T06:43:01.375Z,63.66
2022-11-09T06:45:03.427Z,62.72
2022-11-09T06:47:05.418Z,63.11
2022-11-09T06:49:07.645Z,62.96
2022-11-09T06:51:11.329Z,62.71
2022-11-09T06:53:15.812Z,62.80
2022-11-09T06:55:17.937Z,62.59
2022-11-09T06:57:20.085Z,62.76
2022-11-09T06:59:22.514Z,62.75
2022-11-09T07:01:29.346Z,62.27
2022-11-09T07:03:31.427Z,62.22
2022-11-09T07:05:33.442Z,62.25
2022-11-09T07:07:35.455Z,61.89
2022-11-09T07:09:37.817Z,62.30
2022-11-09T07:11:40.018Z,62.48
2022-11-09T07:13:42.781Z,62.05
2022-11-09T07:15:44.778Z,61.95
2022-11-09T07:17:47.035Z,61.86
2022-11-09T07:19:48.961Z,61.53
2022-11-09T07:21:51.306Z,61.57
2022-11-09T07:23:53.236Z,61.77
2022-11-09T07:25:58.246Z,61.41
2022-11-09T07:28:05.366Z,61.72
2022-11-09T07:30:08.107Z,61.71
2022-11-09T07:32:10.171Z,61.70
2022-11-09T07:34:12.248Z,61.42
2022-11-09T07:36:19.806Z,61.44
2022-11-09T07:38:23.260Z,61.02
2022-11-09T07:40:25.498Z,60.66
2022-11-09T07:42:27.628Z,60.30
2022-11-09T07:44:29.714Z,60.64
2022-11-09T07:46:31.685Z,60.55
2022-11-09T07:48:33.722Z,60.57
2022-11-09T07:50:36.754Z,60.31
2022-11-09T07:52:38.622Z,60.30
2022-11-09T07:54:41.005Z,60.68
2022-11-09T07:56:42.917Z,60.59
2022-11-09T07:58:44.861Z,60.04
2022-11-09T08:00:46.871Z,60.34
2022-11-09T08:03:14.245Z,59.86
2022-11-09T08:05:16.845Z,59.84
2022-11-09T08:07:18.948Z,60.23
2022-11-09T08:09:21.722Z,59.72
2022-11-09T08:11:24.957Z,59.88
2022-11-09T08:13:27.139Z,59.99
2022-11-09T08:15:30.748Z,59.51
2022-11-09T08:17:33.165Z,59.89
2022-11-09T08:19:35.443Z,59.60
2022-11-09T08:21:38.297Z,59.87
2022-11-09T08:23:40.831Z,59.12
2022-11-09T08:25:43.409Z,59.43
2022-11-09T08:27:45.559Z,59.79
2022-11-09T08:29:47.725Z,59.67
2022-11-09T08:31:51.305Z,59.58
2022-11-09T08:33:55.176Z,59.07
2022-11-09T08:35:57.720Z,59.28
2022-11-09T08:38:03.347Z,58.94
2022-11-09T08:40:07.244Z,58.58
2022-11-09T08:42:09.503Z,59.20
2022-11-09T08:44:12.341Z,59.00
2022-11-09T08:46:17.326Z,59.07
2022-11-09T08:48:19.864Z,59.23
2022-11-09T08:50:24.537Z,58.96
2022-11-09T08:52:26.698Z,58.23
2022-11-09T08:54:28.657Z,58.07
2022-11-09T08:56:30.694Z,58.26
2022-11-09T08:58:32.805Z,57.93
2022-11-09T09:00:34.819Z,58.19
2022-11-09T09:02:36.781Z,58.29
2022-11-09T09:04:39.419Z,58.30
2022-11-09T09:06:41.926Z,58.12
2022-11-09T09:08:43.989Z,57.93
2022-11-09T09:10:46.008Z,57.94
2022-11-09T09:12:47.997Z,57.88
2022-11-09T09:14:50.745Z,57.48
2022-11-09T09:16:52.966Z,57.30
2022-11-09T09:18:55.047Z,57.47
2022-11-09T09:20:57.170Z,57.55
2022-11-09T09:23:00.498Z,57.80
2022-11-09T09:25:02.567Z,57.75
2022-11-09T09:27:04.679Z,57.57
2022-11-09T09:29:06.879Z,56.70
2022-11-09T09:31:10.372Z,56.74
2022-11-09T09:33:15.048Z,56.98
2022-11-09T09:35:17.583Z,57.00
2022-11-09T09:37:19.645Z,56.02
2022-11-09T09:39:21.963Z,56.66
2022-11-09T09:41:38.471Z,56.57
2022-11-09T09:43:43.946Z,56.51
2022-11-09T09:45:51.827Z,54.64
2022-11-09T09:48:15.878Z,53.96
2022-11-09T09:50:27.111Z,54.03
2022-11-09T09:53:10.627Z,54.75
2022-11-09T09:55:20.030Z,54.99
2022-11-09T09:57:23.647Z,55.42
2022-11-09T09:59:37.696Z,54.35
2022-11-09T10:01:44.863Z,55.14
2022-11-09T10:03:53.983Z,55.37
2022-11-09T10:06:08.159Z,55.09
2022-11-09T10:08:20.789Z,55.27
2022-11-09T10:10:45.876Z,54.86
2022-11-09T10:14:00.276Z,53.90
2022-11-09T10:16:09.401Z,54.13
2022-11-09T10:18:14.292Z,53.91
2022-11-09T10:20:22.387Z,54.36
2022-11-09T10:22:31.617Z,53.90
2022-11-09T10:24:58.715Z,54.81
2022-11-09T10:27:26.352Z,54.19
2022-11-09T10:29:35.091Z,54.90
2022-11-09T10:31:43.086Z,54.32
2022-11-09T10:33:55.639Z,54.57
2022-11-09T10:36:24.364Z,54.83
2022-11-09T10:38:32.443Z,55.18
2022-11-09T10:40:58.508Z,55.12
2022-11-09T10:43:19.074Z,55.07
2022-11-09T10:45:44.674Z,54.01
2022-11-09T10:48:07.780Z,53.95
2022-11-09T10:50:30.879Z,54.12
2022-11-09T10:52:52.195Z,54.12
2022-11-09T10:55:31.939Z,52.99
2022-11-09T10:57:56.959Z,53.97
2022-11-09T11:00:20.359Z,54.53
2022-11-09T11:02:46.701Z,54.82
2022-11-09T11:05:07.181Z,54.87
2022-11-09T11:07:28.086Z,53.87
2022-11-09T11:09:48.865Z,53.76
2022-11-09T11:12:18.009Z,52.81
2022-11-09T11:14:43.613Z,52.53
2022-11-09T11:17:04.218Z,53.10
2022-11-09T11:19:30.554Z,52.67
2022-11-09T11:22:11.203Z,52.45
2022-11-09T11:24:52.958Z,52.15
2022-11-09T11:27:32.755Z,52.58
2022-11-09T11:30:05.744Z,53.36
2022-11-09T11:32:26.747Z,53.23
2022-11-09T11:35:03.426Z,53.28
2022-11-09T11:37:45.601Z,53.34
2022-11-09T11:40:27.945Z,52.66
2022-11-09T11:43:02.627Z,52.93
2022-11-09T11:45:41.613Z,52.67
2022-11-09T11:48:26.549Z,52.51
2022-11-09T11:51:08.468Z,52.33
2022-11-09T11:53:59.579Z,51.60
2022-11-09T11:56:44.577Z,51.94
2022-11-09T11:59:39.338Z,52.27
2022-11-09T12:02:32.860Z,52.18
2022-11-09T12:05:26.389Z,52.38
2022-11-09T12:07:57.569Z,51.89
2022-11-09T12:10:28.689Z,52.28
2022-11-09T12:13:18.086Z,51.83
2022-11-09T12:16:04.987Z,52.46
2022-11-09T12:18:45.784Z,52.07
2022-11-09T12:21:18.435Z,52.13
2022-11-09T12:23:54.865Z,51.79
2022-11-09T12:27:04.672Z,51.58
2022-11-09T12:29:36.268Z,51.71
2022-11-09T12:31:56.973Z,51.89
2022-11-09T12:35:24.558Z,51.61
2022-11-09T12:37:54.720Z,51.71
2022-11-09T12:40:26.616Z,51.96
2022-11-09T12:42:57.251Z,52.53
2022-11-09T12:45:20.535Z,52.41
2022-11-09T12:47:43.565Z,52.16
2022-11-09T12:50:13.026Z,52.17
2022-11-09T12:52:34.467Z,51.81
2022-11-09T12:54:57.643Z,51.88
2022-11-09T12:57:28.252Z,52.12
2022-11-09T12:59:55.159Z,52.05
2022-11-09T13:02:38.401Z,51.64
2022-11-09T13:05:10.993Z,51.45
2022-11-09T13:07:49.779Z,52.16
2022-11-09T13:10:37.980Z,52.01
2022-11-09T13:13:11.022Z,52.44
2022-11-09T13:15:34.586Z,52.28
2022-11-09T13:17:59.415Z,52.12
2022-11-09T13:23:59.984Z,52.04
2022-11-09T13:26:31.431Z,52.28
2022-11-09T13:29:15.442Z,52.11
2022-11-09T13:32:14.207Z,51.78
2022-11-09T13:34:48.566Z,51.95
2022-11-09T13:37:38.331Z,52.22
2022-11-09T13:40:01.191Z,52.44
2022-11-09T13:42:33.968Z,52.16
2022-11-09T13:48:50.401Z,52.92
2022-11-09T13:51:22.334Z,53.23
2022-11-09T13:54:18.456Z,53.37
2022-11-09T13:56:41.223Z,53.14
2022-11-09T13:59:30.018Z,53.07
2022-11-09T14:01:50.627Z,53.02
2022-11-09T14:04:25.043Z,53.16
2022-11-09T14:06:46.030Z,53.21
2022-11-09T14:09:38.890Z,53.37
2022-11-09T14:12:21.268Z,53.29
2022-11-09T14:15:03.927Z,53.42
2022-11-09T14:17:38.050Z,53.34
2022-11-09T14:20:19.376Z,53.90
2022-11-09T14:22:40.664Z,53.85
2022-11-09T14:25:13.914Z,53.83
2022-11-09T14:27:34.561Z,53.75
2022-11-09T14:29:57.445Z,53.68
2022-11-09T14:32:26.720Z,54.11
2022-11-09T14:34:47.092Z,54.33
2022-11-09T14:37:07.921Z,54.31
2022-11-09T14:39:37.340Z,54.13
2022-11-09T14:41:57.997Z,54.39
2022-11-09T14:44:28.971Z,54.51
2022-11-09T14:46:54.374Z,54.67
2022-11-09T14:50:34.103Z,54.87
2022-11-09T14:52:56.568Z,54.79
2022-11-09T14:55:22.070Z,55.21
2022-11-09T14:57:43.958Z,55.33
2022-11-09T15:00:05.274Z,55.50
2022-11-09T15:02:26.383Z,55.33
2022-11-09T15:04:57.737Z,55.34
2022-11-09T15:07:22.509Z,56.08
2022-11-09T15:09:46.008Z,55.61
2022-11-09T15:12:15.382Z,55.62
2022-11-09T15:14:36.254Z,55.87
2022-11-09T15:17:14.317Z,56.15
2022-11-09T15:19:47.833Z,55.70
2022-11-09T15:22:43.122Z,56.20
2022-11-09T15:25:19.242Z,56.47
2022-11-09T15:27:40.167Z,55.60
2022-11-09T15:30:04.345Z,55.93
2022-11-09T15:32:25.934Z,56.26
2022-11-09T15:34:57.063Z,56.31
2022-11-09T15:37:30.214Z,56.02
2022-11-09T15:39:50.948Z,55.89
2022-11-09T15:42:13.159Z,55.89
2022-11-09T15:44:34.816Z,56.09
2022-11-09T15:46:55.904Z,56.30
2022-11-09T15:49:19.403Z,56.03
2022-11-09T15:51:40.444Z,55.88
2022-11-09T15:54:01.487Z,55.93
2022-11-09T15:56:24.665Z,55.84
2022-11-09T15:58:47.070Z,56.06
2022-11-09T16:01:08.963Z,56.23
2022-11-09T16:03:29.497Z,56.10
2022-11-09T16:05:50.111Z,55.91
2022-11-09T16:08:11.775Z,56.44
2022-11-09T16:10:37.553Z,56.07
2022-11-09T16:12:58.019Z,56.18
2022-11-09T16:15:19.607Z,56.97
2022-11-09T16:17:40.373Z,57.02
2022-11-09T16:20:00.929Z,57.61
2022-11-09T16:22:21.451Z,57.58
2022-11-09T16:24:42.321Z,57.56
2022-11-09T16:27:12.558Z,58.35
2022-11-09T16:29:43.391Z,57.63
2022-11-09T16:32:04.253Z,57.59
2022-11-09T16:34:25.168Z,57.44
2022-11-09T16:36:49.914Z,57.41
2022-11-09T16:39:17.395Z,57.13
2022-11-09T16:41:42.139Z,57.29
2022-11-09T16:44:03.828Z,57.04
2022-11-09T16:46:27.915Z,57.06
2022-11-09T16:48:48.472Z,56.84
2022-11-09T16:51:09.548Z,56.95
2022-11-09T16:53:30.409Z,56.64
2022-11-09T16:55:51.072Z,56.55
2022-11-09T16:58:11.236Z,56.95
2022-11-09T17:00:55.728Z,56.61
2022-11-09T17:03:12.418Z,56.63
2022-11-09T17:05:32.907Z,56.54
2022-11-09T17:07:53.976Z,56.68
2022-11-09T17:10:15.515Z,56.38
2022-11-09T17:12:36.279Z,56.34
2022-11-09T17:14:56.838Z,56.83
2022-11-09T17:17:22.386Z,56.45
2022-11-09T17:19:44.065Z,56.32
2022-11-09T17:22:05.013Z,56.11
2022-11-09T17:24:26.710Z,56.36
2022-11-09T17:26:47.708Z,56.04
2022-11-09T17:29:08.389Z,56.37
2022-11-09T17:31:28.816Z,56.26
2022-11-09T17:33:49.693Z,56.57
2022-11-09T17:36:14.229Z,56.36
2022-11-09T17:38:35.563Z,56.29
2022-11-09T17:41:05.577Z,56.29
2022-11-09T17:43:26.344Z,56.62
2022-11-09T17:45:47.115Z,57.25
2022-11-09T17:48:08.353Z,57.60
2022-11-09T17:50:28.574Z,57.18
2022-11-09T17:52:49.520Z,56.92
2022-11-09T17:55:09.886Z,56.80
2022-11-09T17:57:30.444Z,57.06
2022-11-09T17:59:50.884Z,57.05
2022-11-09T18:02:11.746Z,57.85
2022-11-09T18:04:32.269Z,57.80
2022-11-09T18:06:53.058Z,57.03
2022-11-09T18:11:55.853Z,57.17
2022-11-09T18:14:16.562Z,57.36
2022-11-09T18:16:37.478Z,57.61
2022-11-09T18:19:02.097Z,57.44
2022-11-09T18:21:23.753Z,57.23
2022-11-09T18:23:45.717Z,57.53
2022-11-09T18:26:06.760Z,58.19
2022-11-09T18:28:27.403Z,57.92
2022-11-09T18:30:47.718Z,58.37
2022-11-09T18:33:08.991Z,58.02
2022-11-09T18:35:29.415Z,58.89
2022-11-09T18:37:49.921Z,58.71
2022-11-09T18:40:11.073Z,58.76
2022-11-09T18:42:32.022Z,59.29
2022-11-09T18:44:52.936Z,59.09
2022-11-09T18:47:15.474Z,58.55
2022-11-09T18:49:36.919Z,58.93
2022-11-09T18:51:59.291Z,58.56
2022-11-09T18:54:20.239Z,58.23
2022-11-09T18:56:41.196Z,58.58
2022-11-09T18:59:02.028Z,58.96
2022-11-09T19:01:25.079Z,58.33
2022-11-09T19:03:46.103Z,58.71
2022-11-09T19:06:10.018Z,58.76
2022-11-09T19:08:50.534Z,59.23
2022-11-09T19:11:13.283Z,59.39
2022-11-09T19:13:33.479Z,59.30
2022-11-09T19:15:58.195Z,59.43
2022-11-09T19:18:19.179Z,59.27
2022-11-09T19:20:39.501Z,59.62
2022-11-09T19:23:00.007Z,59.77
2022-11-09T19:25:20.461Z,59.33
2022-11-09T19:27:41.688Z,59.10
2022-11-09T19:30:08.966Z,58.92
2022-11-09T19:32:29.753Z,58.97
2022-11-09T19:34:50.260Z,58.89
2022-11-09T19:37:12.152Z,58.87
2022-11-09T19:39:35.325Z,58.94
2022-11-09T19:41:56.853Z,58.95
2022-11-09T19:44:18.260Z,59.58
2022-11-09T19:46:39.094Z,59.32
2022-11-09T19:48:59.946Z,59.35
2022-11-09T19:51:23.827Z,59.43
2022-11-09T19:53:56.400Z,59.82
2022-11-09T19:56:18.538Z,58.82
2022-11-09T19:58:39.281Z,59.24
2022-11-09T20:01:08.861Z,59.39
2022-11-09T20:03:29.610Z,59.21
2022-11-09T20:05:54.758Z,59.51
2022-11-09T20:08:15.410Z,59.63
2022-11-09T20:10:37.902Z,59.69
2022-11-09T20:12:58.710Z,60.08
2022-11-09T20:15:19.711Z,59.73
2022-11-09T20:17:40.325Z,60.27
2022-11-09T20:20:00.590Z,59.96
2022-11-09T20:22:20.911Z,60.19
2022-11-09T20:24:41.474Z,60.23
2022-11-09T20:27:01.825Z,60.59
2022-11-09T20:29:22.374Z,60.92
2022-11-09T20:31:43.029Z,60.60
2022-11-09T20:34:07.001Z,61.12
2022-11-09T20:36:27.434Z,60.85
2022-11-09T20:38:48.795Z,61.48
2022-11-09T20:41:11.812Z,61.37
2022-11-09T20:43:32.627Z,61.26
2022-11-09T20:45:54.008Z,61.52
2022-11-09T20:48:38.687Z,61.43
2022-11-09T20:50:55.007Z,61.62
2022-11-09T20:53:15.493Z,61.30
2022-11-09T20:55:40.410Z,61.29
2022-11-09T20:58:00.563Z,61.08
2022-11-09T21:00:24.739Z,61.49
2022-11-09T21:06:45.401Z,61.90
2022-11-09T21:09:06.343Z,61.56
2022-11-09T21:11:34.681Z,61.99
2022-11-09T21:13:56.452Z,62.67
2022-11-09T21:16:18.260Z,63.31
2022-11-09T21:18:39.136Z,64.14
2022-11-09T21:21:14.242Z,63.82
2022-11-09T21:23:53.784Z,63.07
2022-11-09T21:26:53.008Z,63.57
2022-11-09T21:29:43.659Z,63.68
2022-11-09T21:32:05.258Z,63.54
2022-11-09T21:34:25.923Z,63.35
2022-11-09T21:36:46.354Z,63.50
2022-11-09T21:39:07.177Z,63.69
2022-11-09T21:41:39.842Z,63.06
2022-11-09T21:44:00.363Z,63.53
2022-11-09T21:46:21.828Z,63.14
2022-11-09T21:48:45.424Z,63.04
2022-11-09T21:51:06.019Z,63.23
2022-11-09T21:53:26.985Z,62.75
2022-11-09T21:55:48.028Z,62.52
2022-11-09T21:58:08.333Z,62.74
2022-11-09T22:00:29.048Z,62.37
2022-11-09T22:02:49.740Z,62.03
2022-11-09T22:05:10.681Z,61.60
2022-11-09T22:07:31.358Z,61.77
2022-11-09T22:12:52.714Z,62.11
2022-11-09T22:15:32.024Z,62.35
2022-11-09T22:17:56.597Z,62.41
2022-11-09T22:20:36.157Z,62.64
2022-11-09T22:22:57.332Z,62.30
2022-11-09T22:25:18.249Z,62.07
2022-11-09T22:27:39.005Z,62.25
2022-11-09T22:30:00.295Z,62.40
2022-11-09T22:32:21.926Z,62.60
2022-11-09T22:34:42.637Z,62.40
2022-11-09T22:37:03.791Z,62.23
2022-11-09T22:39:24.590Z,62.47
2022-11-09T22:41:45.006Z,62.29
2022-11-09T22:44:06.091Z,62.10
2022-11-09T22:46:27.250Z,62.38
2022-11-09T22:48:48.076Z,62.37
2022-11-09T22:51:09.429Z,62.37
2022-11-09T22:53:30.711Z,62.35
2022-11-09T22:55:59.156Z,62.96
2022-11-09T22:58:19.571Z,62.69
2022-11-09T23:00:41.867Z,62.93
2022-11-09T23:03:02.763Z,62.83
2022-11-09T23:05:23.842Z,62.96
2022-11-09T23:07:44.748Z,62.66
2022-11-09T23:10:06.263Z,62.56
2022-11-09T23:12:26.877Z,62.50
2022-11-09T23:15:05.748Z,62.34
2022-11-09T23:17:46.714Z,62.35
2022-11-09T23:20:08.373Z,62.10
2022-11-09T23:22:29.169Z,62.24
2022-11-09T23:28:43.911Z,62.10
2022-11-09T23:31:10.740Z,62.47
2022-11-09T23:33:31.997Z,62.45
2022-11-09T23:35:52.758Z,62.18
2022-11-09T23:38:13.518Z,62.13
2022-11-09T23:40:35.666Z,62.11
2022-11-09T23:43:04.791Z,62.46
2022-11-09T23:45:25.427Z,62.59
2022-11-09T23:47:45.930Z,62.69
2022-11-09T23:50:06.859Z,62.65
2022-11-09T23:52:28.270Z,62.56
2022-11-09T23:54:48.916Z,62.34
2022-11-09T23:57:09.700Z,62.48
2022-11-09T23:59:29.905Z,62.43
